createdAt,value
2019-03-05T00:01:50.600Z,11.63
2019-03-05T00:04:21.362Z,13.73
2019-03-05T00:06:51.220Z,13.50
2019-03-05T00:09:24.109Z,19.67
2019-03-05T00:11:53.813Z,17.47
2019-03-05T00:14:23.866Z,25.33
2019-03-05T00:16:53.706Z,21.13
2019-03-05T00:19:23.688Z,22.73
2019-03-05T00:21:53.566Z,22.70
2019-03-05T00:25:00.580Z,28.73
2019-03-05T00:27:33.644Z,33.83
2019-03-05T00:30:45.505Z,26.77
2019-03-05T00:33:59.263Z,27.97
2019-03-05T00:36:46.123Z,34.23
2019-03-05T00:39:30.327Z,32.57
2019-03-05T00:42:46.007Z,27.33
2019-03-05T00:45:58.738Z,33.90
2019-03-05T00:49:08.969Z,28.93
2019-03-05T00:52:32.499Z,29.37
2019-03-05T00:55:46.395Z,33.17
2019-03-05T00:58:26.553Z,20.60
2019-03-05T01:01:29.566Z,17.07
2019-03-05T01:04:22.102Z,19.30
2019-03-05T01:06:52.075Z,26.73
2019-03-05T01:09:23.380Z,22.63
2019-03-05T01:11:53.198Z,23.70
2019-03-05T01:14:24.135Z,25.67
2019-03-05T01:16:54.714Z,16.90
2019-03-05T01:19:24.545Z,13.10
2019-03-05T01:21:54.376Z,15.97
2019-03-05T01:24:24.194Z,14.50
2019-03-05T01:26:54.017Z,14.77
2019-03-05T01:29:23.880Z,14.53
2019-03-05T01:32:12.771Z,18.97
2019-03-05T01:35:04.614Z,20.90
2019-03-05T01:37:34.558Z,15.67
2019-03-05T01:40:16.438Z,16.40
2019-03-05T01:42:46.730Z,22.37
2019-03-05T01:45:17.185Z,12.67
2019-03-05T01:47:47.054Z,17.93
2019-03-05T01:50:16.912Z,12.47
2019-03-05T01:52:46.660Z,14.33
2019-03-05T01:55:16.497Z,9.50
2019-03-05T01:57:46.236Z,11.37
2019-03-05T02:00:16.003Z,10.60
2019-03-05T02:02:46.184Z,14.80
2019-03-05T02:05:16.619Z,9.50
2019-03-05T02:07:46.500Z,19.63
2019-03-05T02:10:20.611Z,13.33
2019-03-05T02:12:50.546Z,11.77
2019-03-05T02:15:20.370Z,15.30
2019-03-05T02:17:50.053Z,11.10
2019-03-05T02:20:21.923Z,12.00
2019-03-05T02:23:04.631Z,11.13
2019-03-05T02:25:45.575Z,10.73
2019-03-05T02:28:25.029Z,10.67
2019-03-05T02:31:33.453Z,8.87
2019-03-05T02:34:18.100Z,10.07
2019-03-05T02:37:20.881Z,12.77
2019-03-05T02:40:22.360Z,8.73
2019-03-05T02:43:33.301Z,10.40
2019-03-05T02:46:43.159Z,10.07
2019-03-05T02:49:35.750Z,13.10
2019-03-05T02:52:49.748Z,11.00
2019-03-05T02:56:06.556Z,12.80
2019-03-05T02:58:34.945Z,9.53
2019-03-05T03:01:23.688Z,13.17
2019-03-05T03:03:57.469Z,14.90
2019-03-05T03:06:30.483Z,14.70
2019-03-05T03:09:47.636Z,8.87
2019-03-05T03:12:17.556Z,12.40
2019-03-05T03:14:47.308Z,10.30
2019-03-05T03:17:18.060Z,13.57
2019-03-05T03:19:47.853Z,9.93
2019-03-05T03:22:17.754Z,15.03
2019-03-05T03:24:47.499Z,11.47
2019-03-05T03:27:17.258Z,12.80
2019-03-05T03:29:47.131Z,6.37
2019-03-05T03:32:17.016Z,12.37
2019-03-05T03:34:47.121Z,18.13
2019-03-05T03:37:17.212Z,9.97
2019-03-05T03:39:47.027Z,16.33
2019-03-05T03:42:16.784Z,22.07
2019-03-05T03:44:46.984Z,9.97
2019-03-05T03:47:16.774Z,10.67
2019-03-05T03:49:46.483Z,8.67
2019-03-05T03:52:16.600Z,14.83
2019-03-05T03:54:46.392Z,11.77
2019-03-05T03:57:16.253Z,12.20
2019-03-05T03:59:46.029Z,14.00
2019-03-05T04:02:15.760Z,16.63
2019-03-05T04:04:45.654Z,10.53
2019-03-05T04:07:15.554Z,12.63
2019-03-05T04:09:45.628Z,8.97
2019-03-05T04:12:15.482Z,4.17
2019-03-05T04:14:45.232Z,6.93
2019-03-05T04:17:14.989Z,2.33
2019-03-05T04:19:44.775Z,2.20
2019-03-05T04:22:14.595Z,2.13
2019-03-05T04:24:44.422Z,2.73
2019-03-05T04:27:14.691Z,2.03
2019-03-05T04:29:44.386Z,2.33
2019-03-05T04:32:14.211Z,2.97
2019-03-05T04:34:44.032Z,1.43
2019-03-05T04:37:13.747Z,4.47
2019-03-05T04:39:43.466Z,4.17
2019-03-05T04:42:13.298Z,3.80
2019-03-05T04:44:48.306Z,2.73
2019-03-05T04:47:18.006Z,4.30
2019-03-05T04:49:56.168Z,2.97
2019-03-05T04:52:29.524Z,2.93
2019-03-05T04:55:00.405Z,3.73
2019-03-05T04:57:30.218Z,4.57
2019-03-05T04:59:59.932Z,5.37
2019-03-05T05:02:29.977Z,2.77
2019-03-05T05:04:59.781Z,6.70
2019-03-05T05:07:29.474Z,5.27
2019-03-05T05:09:59.509Z,2.73
2019-03-05T05:12:29.281Z,7.50
2019-03-05T05:14:59.088Z,7.03
2019-03-05T05:17:29.341Z,4.80
2019-03-05T05:19:59.712Z,9.87
2019-03-05T05:22:30.539Z,9.50
2019-03-05T05:25:00.409Z,11.93
2019-03-05T05:27:30.151Z,5.97
2019-03-05T05:30:00.478Z,10.00
2019-03-05T05:32:30.217Z,8.70
2019-03-05T05:34:59.982Z,12.43
2019-03-05T05:37:29.789Z,10.67
2019-03-05T05:40:22.218Z,8.27
2019-03-05T05:42:52.504Z,8.97
2019-03-05T05:45:23.934Z,14.20
2019-03-05T05:47:53.712Z,8.23
2019-03-05T05:50:23.438Z,9.53
2019-03-05T05:52:53.167Z,14.17
2019-03-05T05:55:23.337Z,8.03
2019-03-05T05:57:53.114Z,10.83
2019-03-05T06:00:22.926Z,10.13
2019-03-05T06:02:52.758Z,10.97
2019-03-05T06:05:22.516Z,8.53
2019-03-05T06:07:52.285Z,13.87
2019-03-05T06:10:22.409Z,8.87
2019-03-05T06:12:52.512Z,6.00
2019-03-05T06:15:22.311Z,14.30
2019-03-05T06:17:52.163Z,15.70
2019-03-05T06:20:21.953Z,10.17
2019-03-05T06:22:51.675Z,13.67
2019-03-05T06:25:21.524Z,12.37
2019-03-05T06:27:51.580Z,7.37
2019-03-05T06:30:21.473Z,11.80
2019-03-05T06:32:51.347Z,15.30
2019-03-05T06:35:21.138Z,19.60
2019-03-05T06:37:51.052Z,10.47
2019-03-05T06:40:20.828Z,13.63
2019-03-05T06:42:50.567Z,13.13
2019-03-05T06:45:20.569Z,15.03
2019-03-05T06:47:50.263Z,8.13
2019-03-05T06:50:20.201Z,17.43
2019-03-05T06:52:49.862Z,10.13
2019-03-05T06:55:20.860Z,17.80
2019-03-05T06:57:50.596Z,14.47
2019-03-05T07:00:27.365Z,15.90
2019-03-05T07:02:57.171Z,11.57
2019-03-05T07:06:03.087Z,13.40
2019-03-05T07:08:33.063Z,15.63
2019-03-05T07:11:13.766Z,11.30
2019-03-05T07:13:43.833Z,13.83
2019-03-05T07:16:24.041Z,13.20
2019-03-05T07:19:06.212Z,19.57
2019-03-05T07:22:10.679Z,12.53
2019-03-05T07:24:45.868Z,10.63
2019-03-05T07:27:18.248Z,17.90
2019-03-05T07:29:48.789Z,13.33
2019-03-05T07:32:18.611Z,14.53
2019-03-05T07:34:49.888Z,15.90
2019-03-05T07:37:19.688Z,15.17
2019-03-05T07:39:49.472Z,24.20
2019-03-05T07:42:19.332Z,21.37
2019-03-05T07:44:49.191Z,16.87
2019-03-05T07:47:19.185Z,21.33
2019-03-05T07:49:48.903Z,15.77
2019-03-05T07:52:18.675Z,13.50
2019-03-05T07:54:48.374Z,9.73
2019-03-05T07:57:18.142Z,18.57
2019-03-05T07:59:47.855Z,10.23
2019-03-05T08:02:17.872Z,14.87
2019-03-05T08:04:47.618Z,14.27
2019-03-05T08:07:17.413Z,18.60
2019-03-05T08:09:47.207Z,17.77
2019-03-05T08:12:48.182Z,14.60
2019-03-05T08:15:36.211Z,16.23
2019-03-05T08:18:06.035Z,12.63
2019-03-05T08:20:35.877Z,22.07
2019-03-05T08:23:05.848Z,14.07
2019-03-05T08:25:35.616Z,17.77
2019-03-05T08:28:05.549Z,15.87
2019-03-05T08:30:35.425Z,17.93
2019-03-05T08:33:05.237Z,15.47
2019-03-05T08:35:34.980Z,15.27
2019-03-05T08:38:04.780Z,14.83
2019-03-05T08:40:34.813Z,12.80
2019-03-05T08:43:04.816Z,14.77
2019-03-05T08:45:34.564Z,9.23
2019-03-05T08:48:04.477Z,12.20
2019-03-05T08:50:34.226Z,18.60
2019-03-05T08:53:05.176Z,14.57
2019-03-05T08:55:35.865Z,20.30
2019-03-05T08:58:06.120Z,11.47
2019-03-05T09:00:37.298Z,10.17
2019-03-05T09:03:07.141Z,11.00
2019-03-05T09:05:36.942Z,11.27
2019-03-05T09:08:06.672Z,11.30
2019-03-05T09:10:36.574Z,12.87
2019-03-05T09:13:08.362Z,12.70
2019-03-05T09:15:38.349Z,11.17
2019-03-05T09:18:08.129Z,14.63
2019-03-05T09:20:37.957Z,8.83
2019-03-05T09:23:07.677Z,11.90
2019-03-05T09:25:38.544Z,13.63
2019-03-05T09:28:08.329Z,14.00
2019-03-05T09:30:38.426Z,11.07
2019-03-05T09:33:08.337Z,11.03
2019-03-05T09:35:38.164Z,15.70
2019-03-05T09:38:09.315Z,11.13
2019-03-05T09:40:39.060Z,14.23
2019-03-05T09:43:08.929Z,14.60
2019-03-05T09:45:39.166Z,10.47
2019-03-05T09:48:08.927Z,9.83
2019-03-05T09:50:39.097Z,11.97
2019-03-05T09:53:08.781Z,13.17
2019-03-05T09:55:38.688Z,15.13
2019-03-05T09:58:08.873Z,16.87
2019-03-05T10:00:38.871Z,19.37
2019-03-05T10:03:08.911Z,16.33
2019-03-05T10:05:38.726Z,14.63
2019-03-05T10:08:08.517Z,14.40
2019-03-05T10:10:38.553Z,13.93
2019-03-05T10:13:08.501Z,12.13
2019-03-05T10:15:38.288Z,13.70
2019-03-05T10:18:12.785Z,12.97
2019-03-05T10:20:39.891Z,14.73
2019-03-05T10:23:09.752Z,13.60
2019-03-05T10:25:39.724Z,16.07
2019-03-05T10:28:09.576Z,12.57
2019-03-05T10:30:40.377Z,13.60
2019-03-05T10:33:11.634Z,14.90
2019-03-05T10:35:41.903Z,14.00
2019-03-05T10:38:12.854Z,11.83
2019-03-05T10:40:43.174Z,13.10
2019-03-05T10:43:13.519Z,10.50
2019-03-05T10:45:45.313Z,10.47
2019-03-05T10:48:17.072Z,8.63
2019-03-05T10:50:47.516Z,10.00
2019-03-05T10:53:17.939Z,9.00
2019-03-05T10:55:47.738Z,8.33
2019-03-05T10:58:17.917Z,11.60
2019-03-05T11:00:47.900Z,12.37
2019-03-05T11:03:18.941Z,9.83
2019-03-05T11:05:48.859Z,7.23
2019-03-05T11:08:21.013Z,12.20
2019-03-05T11:10:50.854Z,10.87
2019-03-05T11:13:20.646Z,12.63
2019-03-05T11:15:53.554Z,9.80
2019-03-05T11:18:29.503Z,8.80
2019-03-05T11:20:56.274Z,9.50
2019-03-05T11:23:26.011Z,9.87
2019-03-05T11:25:55.873Z,12.23
2019-03-05T11:28:25.637Z,9.60
2019-03-05T11:30:55.497Z,13.40
2019-03-05T11:33:25.239Z,9.23
2019-03-05T11:35:55.101Z,7.23
2019-03-05T11:38:24.875Z,9.33
2019-03-05T11:40:54.712Z,10.30
2019-03-05T11:43:24.591Z,11.67
2019-03-05T11:45:54.566Z,12.13
2019-03-05T11:48:24.670Z,14.40
2019-03-05T11:50:54.781Z,5.17
2019-03-05T11:53:24.552Z,9.53
2019-03-05T11:55:54.347Z,9.27
2019-03-05T11:58:24.147Z,11.27
2019-03-05T12:01:00.705Z,13.33
2019-03-05T12:03:30.971Z,15.90
2019-03-05T12:06:00.688Z,14.20
2019-03-05T12:08:30.809Z,11.13
2019-03-05T12:11:00.600Z,12.03
2019-03-05T12:13:30.550Z,10.37
2019-03-05T12:16:03.565Z,10.30
2019-03-05T12:18:33.331Z,8.83
2019-03-05T12:21:03.135Z,9.50
2019-03-05T12:23:32.814Z,10.43
2019-03-05T12:26:02.680Z,9.73
2019-03-05T12:28:32.518Z,6.93
2019-03-05T12:31:02.357Z,6.23
2019-03-05T12:33:32.101Z,8.73
2019-03-05T12:36:01.987Z,7.90
2019-03-05T12:38:31.854Z,9.43
2019-03-05T12:41:01.693Z,8.13
2019-03-05T12:43:31.376Z,8.30
2019-03-05T12:46:01.108Z,10.33
2019-03-05T12:48:39.587Z,5.93
2019-03-05T12:51:02.411Z,11.10
2019-03-05T12:53:32.299Z,10.37
2019-03-05T12:56:02.001Z,7.80
2019-03-05T12:58:32.122Z,7.00
2019-03-05T13:01:01.969Z,10.60
2019-03-05T13:03:31.907Z,7.60
2019-03-05T13:06:01.625Z,8.37
2019-03-05T13:08:31.366Z,7.63
2019-03-05T13:11:01.129Z,8.27
2019-03-05T13:13:31.339Z,9.50
2019-03-05T13:16:01.146Z,6.50
2019-03-05T13:18:32.385Z,7.27
2019-03-05T13:21:03.639Z,5.97
2019-03-05T13:23:33.593Z,5.40
2019-03-05T13:26:07.550Z,7.60
2019-03-05T13:28:36.817Z,6.97
2019-03-05T13:31:06.705Z,8.07
2019-03-05T13:33:38.003Z,6.47
2019-03-05T13:36:12.041Z,8.90
2019-03-05T13:38:41.839Z,7.57
2019-03-05T13:41:15.690Z,6.17
2019-03-05T13:43:43.749Z,9.47
2019-03-05T13:46:13.563Z,7.53
2019-03-05T13:49:25.545Z,6.37
2019-03-05T13:52:28.269Z,8.07
2019-03-05T13:55:15.334Z,4.93
2019-03-05T13:58:14.241Z,4.90
2019-03-05T14:00:44.340Z,5.67
2019-03-05T14:03:20.044Z,4.70
2019-03-05T14:07:04.539Z,6.57
2019-03-05T14:09:32.885Z,6.50
2019-03-05T14:12:02.683Z,6.77
2019-03-05T14:14:35.280Z,6.03
2019-03-05T14:17:26.626Z,5.43
2019-03-05T14:19:56.441Z,7.23
2019-03-05T14:22:26.413Z,5.87
2019-03-05T14:25:02.186Z,6.40
2019-03-05T14:27:27.687Z,4.93
2019-03-05T14:29:57.577Z,9.37
2019-03-05T14:32:27.529Z,8.93
2019-03-05T14:35:10.657Z,5.77
2019-03-05T14:37:40.409Z,8.97
2019-03-05T14:40:24.129Z,5.50
2019-03-05T14:42:48.652Z,5.40
2019-03-05T14:45:22.261Z,9.03
2019-03-05T14:47:53.554Z,5.70
2019-03-05T14:50:23.327Z,6.73
2019-03-05T14:52:53.122Z,8.30
2019-03-05T14:55:22.894Z,5.23
2019-03-05T14:57:53.099Z,8.67
2019-03-05T15:00:23.474Z,7.10
2019-03-05T15:02:53.387Z,8.23
2019-03-05T15:05:23.493Z,6.97
2019-03-05T15:07:54.735Z,7.57
2019-03-05T15:10:25.383Z,8.07
2019-03-05T15:12:55.094Z,5.93
2019-03-05T15:15:27.288Z,5.93
2019-03-05T15:17:57.087Z,7.23
2019-03-05T15:20:26.869Z,6.43
2019-03-05T15:22:56.646Z,8.60
2019-03-05T15:25:26.499Z,6.77
2019-03-05T15:27:56.255Z,4.57
2019-03-05T15:30:28.721Z,8.10
2019-03-05T15:32:57.670Z,4.60
2019-03-05T15:35:27.832Z,6.17
2019-03-05T15:37:57.509Z,5.73
2019-03-05T15:40:27.193Z,8.57
2019-03-05T15:42:57.286Z,7.13
2019-03-05T15:45:27.468Z,5.43
2019-03-05T15:47:57.096Z,6.93
2019-03-05T15:50:26.942Z,7.03
2019-03-05T15:52:56.805Z,5.67
2019-03-05T15:55:26.664Z,4.40
2019-03-05T15:57:56.546Z,4.23
2019-03-05T16:00:29.373Z,4.43
2019-03-05T16:02:59.565Z,4.73
2019-03-05T16:05:29.440Z,9.70
2019-03-05T16:08:01.112Z,7.20
2019-03-05T16:10:30.857Z,7.30
2019-03-05T16:13:00.716Z,8.37
2019-03-05T16:15:30.567Z,6.23
2019-03-05T16:18:01.377Z,5.30
2019-03-05T16:20:32.926Z,4.97
2019-03-05T16:23:03.035Z,5.63
2019-03-05T16:25:32.809Z,5.87
2019-03-05T16:28:06.412Z,5.17
2019-03-05T16:30:54.827Z,7.83
2019-03-05T16:33:38.550Z,5.80
2019-03-05T16:36:43.219Z,5.10
2019-03-05T16:39:35.021Z,6.10
2019-03-05T16:42:17.087Z,5.20
2019-03-05T16:45:11.293Z,6.00
2019-03-05T16:48:00.203Z,5.80
2019-03-05T16:50:55.537Z,6.70
2019-03-05T16:53:39.101Z,7.67
2019-03-05T16:56:30.948Z,8.07
2019-03-05T16:59:38.709Z,5.67
2019-03-05T17:02:25.940Z,7.30
2019-03-05T17:05:13.337Z,8.53
2019-03-05T17:08:20.283Z,8.40
2019-03-05T17:11:07.899Z,7.53
2019-03-05T17:13:37.660Z,10.97
2019-03-05T17:16:07.502Z,8.63
2019-03-05T17:18:37.733Z,8.30
2019-03-05T17:21:08.071Z,9.63
2019-03-05T17:23:37.813Z,7.27
2019-03-05T17:26:08.125Z,10.00
2019-03-05T17:28:38.090Z,8.00
2019-03-05T17:31:08.113Z,8.87
2019-03-05T17:33:37.925Z,9.73
2019-03-05T17:36:07.967Z,8.03
2019-03-05T17:38:39.196Z,8.27
2019-03-05T17:41:09.418Z,7.57
2019-03-05T17:43:39.243Z,9.40
2019-03-05T17:46:09.250Z,9.50
2019-03-05T17:48:39.100Z,7.67
2019-03-05T17:51:09.254Z,8.10
2019-03-05T17:53:39.272Z,10.40
2019-03-05T17:56:09.056Z,9.17
2019-03-05T17:58:39.136Z,8.33
2019-03-05T18:01:09.534Z,10.20
2019-03-05T18:03:40.011Z,9.33
2019-03-05T18:06:09.868Z,9.63
2019-03-05T18:08:39.825Z,8.27
2019-03-05T18:11:09.558Z,9.57
2019-03-05T18:13:39.574Z,9.63
2019-03-05T18:16:09.845Z,11.93
2019-03-05T18:18:41.451Z,10.57
2019-03-05T18:21:11.507Z,10.10
2019-03-05T18:23:41.639Z,9.70
2019-03-05T18:26:11.993Z,8.77
2019-03-05T18:28:42.018Z,8.73
2019-03-05T18:31:11.908Z,8.50
2019-03-05T18:33:41.728Z,9.80
2019-03-05T18:36:11.497Z,10.87
2019-03-05T18:38:41.379Z,9.10
2019-03-05T18:41:12.221Z,10.67
2019-03-05T18:43:42.322Z,10.13
2019-03-05T18:46:12.268Z,10.40
2019-03-05T18:48:42.229Z,9.67
2019-03-05T18:51:12.398Z,13.20
2019-03-05T18:53:42.484Z,11.17
2019-03-05T18:56:12.289Z,10.30
2019-03-05T18:58:42.092Z,9.10
2019-03-05T19:01:11.909Z,12.30
2019-03-05T19:03:42.091Z,12.80
2019-03-05T19:06:11.827Z,12.80
2019-03-05T19:08:41.626Z,12.30
2019-03-05T19:11:11.315Z,12.83
2019-03-05T19:13:41.839Z,15.37
2019-03-05T19:16:11.628Z,14.07
2019-03-05T19:18:41.384Z,18.17
2019-03-05T19:21:11.308Z,19.97
2019-03-05T19:23:41.540Z,15.33
2019-03-05T19:26:13.881Z,16.00
2019-03-05T19:28:43.618Z,12.37
2019-03-05T19:31:13.391Z,10.40
2019-03-05T19:33:43.818Z,11.63
2019-03-05T19:36:13.664Z,11.73
2019-03-05T19:38:43.438Z,14.47
2019-03-05T19:41:14.083Z,12.37
2019-03-05T19:43:43.783Z,9.67
2019-03-05T19:46:13.758Z,10.90
2019-03-05T19:48:43.770Z,15.63
2019-03-05T19:51:13.609Z,11.23
2019-03-05T19:53:43.294Z,19.37
2019-03-05T19:56:14.176Z,14.00
2019-03-05T19:58:44.166Z,14.63
2019-03-05T20:01:25.177Z,12.70
2019-03-05T20:03:55.074Z,17.73
2019-03-05T20:06:24.921Z,13.20
2019-03-05T20:08:54.956Z,11.73
2019-03-05T20:11:24.958Z,18.60
2019-03-05T20:13:54.915Z,17.13
2019-03-05T20:16:24.805Z,20.43
2019-03-05T20:18:54.739Z,14.13
2019-03-05T20:21:24.452Z,14.77
2019-03-05T20:23:54.221Z,14.13
2019-03-05T20:26:23.989Z,15.67
2019-03-05T20:28:54.009Z,12.83
2019-03-05T20:31:23.967Z,13.43
2019-03-05T20:33:53.733Z,10.70
2019-03-05T20:36:23.517Z,16.47
2019-03-05T20:38:53.302Z,15.87
2019-03-05T20:41:23.227Z,10.70
2019-03-05T20:43:53.096Z,13.70
2019-03-05T20:46:25.723Z,12.40
2019-03-05T20:48:57.181Z,10.00
2019-03-05T20:51:27.157Z,12.10
2019-03-05T20:53:57.077Z,10.43
2019-03-05T20:56:26.834Z,10.13
2019-03-05T20:58:56.719Z,13.57
2019-03-05T21:01:26.553Z,11.80
2019-03-05T21:03:56.253Z,18.83
2019-03-05T21:06:26.013Z,17.60
2019-03-05T21:08:56.049Z,10.70
2019-03-05T21:11:25.935Z,12.80
2019-03-05T21:13:55.739Z,10.70
2019-03-05T21:16:25.536Z,9.80
2019-03-05T21:18:55.367Z,9.93
2019-03-05T21:21:25.424Z,8.77
2019-03-05T21:23:55.485Z,9.70
2019-03-05T21:26:25.256Z,10.07
2019-03-05T21:28:55.108Z,10.60
2019-03-05T21:31:25.168Z,9.77
2019-03-05T21:33:55.535Z,10.63
2019-03-05T21:36:25.388Z,9.57
2019-03-05T21:38:55.456Z,9.90
2019-03-05T21:41:27.017Z,9.60
2019-03-05T21:43:57.075Z,8.53
2019-03-05T21:46:27.144Z,10.07
2019-03-05T21:48:57.282Z,12.20
2019-03-05T21:51:27.316Z,10.10
2019-03-05T21:53:56.956Z,8.13
2019-03-05T21:56:27.019Z,8.10
2019-03-05T21:58:57.223Z,11.13
2019-03-05T22:01:27.273Z,7.70
2019-03-05T22:03:58.301Z,7.83
2019-03-05T22:06:28.151Z,8.33
2019-03-05T22:08:57.860Z,9.70
2019-03-05T22:11:27.780Z,10.33
2019-03-05T22:13:58.748Z,7.03
2019-03-05T22:16:34.677Z,9.63
2019-03-05T22:19:04.670Z,8.90
2019-03-05T22:21:34.466Z,10.83
2019-03-05T22:24:04.443Z,9.60
2019-03-05T22:26:34.305Z,8.30
2019-03-05T22:29:04.158Z,7.70
2019-03-05T22:31:33.883Z,9.63
2019-03-05T22:34:03.636Z,7.77
2019-03-05T22:36:33.831Z,10.23
2019-03-05T22:39:04.234Z,9.80
2019-03-05T22:41:35.648Z,12.87
2019-03-05T22:44:05.427Z,6.27
2019-03-05T22:46:35.136Z,7.87
2019-03-05T22:49:04.912Z,9.53
2019-03-05T22:51:34.715Z,7.17
2019-03-05T22:54:04.453Z,9.10
2019-03-05T22:56:34.345Z,8.57
2019-03-05T22:59:04.679Z,8.47
2019-03-05T23:01:38.026Z,7.77
2019-03-05T23:04:09.283Z,6.80
2019-03-05T23:06:39.571Z,7.63
2019-03-05T23:09:14.877Z,9.77
2019-03-05T23:11:45.112Z,8.50
2019-03-05T23:14:15.329Z,6.07
2019-03-05T23:16:45.347Z,9.03
2019-03-05T23:19:16.328Z,6.93
2019-03-05T23:21:46.159Z,17.60
2019-03-05T23:24:15.951Z,8.40
2019-03-05T23:26:45.793Z,6.23
2019-03-05T23:29:16.419Z,7.20
2019-03-05T23:31:46.901Z,7.63
2019-03-05T23:34:18.438Z,9.17
2019-03-05T23:36:48.430Z,5.57
2019-03-05T23:39:18.397Z,7.80
2019-03-05T23:41:48.596Z,8.37
2019-03-05T23:44:18.447Z,6.87
2019-03-05T23:46:48.237Z,6.00
2019-03-05T23:49:18.085Z,8.23
2019-03-05T23:51:47.816Z,6.83
2019-03-05T23:54:18.492Z,9.73
2019-03-05T23:56:48.251Z,9.30
2019-03-05T23:59:17.934Z,6.33
